Trout River, Canada
Current Conditions -  °F | °C
As of 4:00 PM on Monday 20 Oct 2014 (Local Time) from CYDF Reporting Station
Rain Showers Rain Showers  
Wind Chill: 38°   Ceiling: 3200
Heat Index: 46°   Visibility: 12mi
Dew Point: 41°   Wind: 26mph
Humidity: 81%   Direction: 230°SW
Pressure: 29.31"   Gusts: 35mph
Location:  49.48°N, 58.12°W
Report Text: CYDF 201800Z 23023G30KT 12SM -SHRA OVC032 08/05 A2931 RMK SC8 SLP927
Loading
Personal Weather Stations






























Interactive Weather Map
Tropical Storm Tracking
New forecast layout! Learn more

10-Day Weather Forecast

Advertisements
Track Severe Weather on mobile